Time;durP1;ratioP1;P1;durP2;ratioP2;P2;SDS_P1;SDS_P2;PMS_P1;PMS_P2;Temp;Humidity;BMP_temperature;BMP_pressure;BME280_temperature;BME280_humidity;BME280_pressure;Samples;Min_cycle;Max_cycle;Signal;HPM_P1;HPM_P2
2022/05/17 00:02:19;;;;;;;5.60;2.60;;;;;;;17.85;44.24;101277.22;5021995;28;20265;-52
2022/05/17 00:04:45;;;;;;;2.42;1.80;;;;;;;17.86;44.59;101279.84;5021451;28;20240;-52
2022/05/17 00:07:11;;;;;;;2.92;2.28;;;;;;;17.78;43.79;101265.00;5020599;28;20268;-54
2022/05/17 00:09:39;;;;;;;2.97;2.53;;;;;;;17.86;42.98;101271.88;5022591;28;20236;-52
2022/05/17 00:12:07;;;;;;;4.20;2.33;;;;;;;17.82;43.29;101270.19;5027176;28;20232;-52
2022/05/17 00:14:34;;;;;;;5.25;2.33;;;;;;;17.83;43.57;101268.41;5021221;28;20625;-52
2022/05/17 00:17:01;;;;;;;4.40;2.42;;;;;;;17.70;44.74;101277.56;5015339;28;20311;-53
2022/05/17 00:19:28;;;;;;;3.50;2.22;;;;;;;17.77;43.68;101268.56;5018986;28;20244;-52
2022/05/17 00:21:55;;;;;;;4.68;2.50;;;;;;;17.76;44.51;101267.69;5016591;28;20746;-53
2022/05/17 00:24:24;;;;;;;2.95;2.22;;;;;;;17.71;45.13;101266.88;5022232;28;20241;-51
2022/05/17 00:26:52;;;;;;;4.63;1.98;;;;;;;17.77;45.40;101273.88;5016482;28;20228;-52
2022/05/17 00:29:18;;;;;;;3.22;2.38;;;;;;;17.77;46.43;101268.56;5021629;28;20244;-52
2022/05/17 00:31:45;;;;;;;2.92;2.42;;;;;;;17.75;47.53;101279.19;5020514;28;20264;-51
2022/05/17 00:34:12;;;;;;;4.55;2.15;;;;;;;17.67;48.49;101282.94;5022861;28;20244;-51
2022/05/17 00:36:39;;;;;;;4.10;2.40;;;;;;;17.52;50.37;101274.38;5017768;28;20222;-52
2022/05/17 00:39:05;;;;;;;4.53;2.83;;;;;;;17.46;50.87;101274.50;5027953;28;20251;-53
2022/05/17 00:41:32;;;;;;;2.78;2.25;;;;;;;17.37;50.03;101269.38;5021130;28;20245;-52
2022/05/17 00:46:47;;;;;;;4.65;2.53;;;;;;;17.34;49.85;101264.13;5020586;28;20247;-54
2022/05/17 00:49:19;;;;;;;4.85;2.58;;;;;;;17.30;50.51;101265.09;5017486;28;20255;-53
2022/05/17 00:51:45;;;;;;;6.32;2.58;;;;;;;17.33;49.14;101270.34;5023357;28;20244;-52
2022/05/17 00:54:14;;;;;;;2.92;2.55;;;;;;;17.39;49.01;101271.09;5021323;28;20233;-51
2022/05/17 00:56:44;;;;;;;4.25;2.38;;;;;;;17.45;48.62;101266.59;5016856;28;20295;-51
2022/05/17 00:59:11;;;;;;;2.25;2.03;;;;;;;17.47;49.68;101272.72;5018083;28;20268;-52
2022/05/17 01:01:38;;;;;;;2.38;2.08;;;;;;;17.44;49.80;101270.13;5017332;28;20237;-53
2022/05/17 01:04:09;;;;;;;2.97;2.58;;;;;;;17.36;50.95;101267.63;5017248;28;20257;-52
2022/05/17 01:06:39;;;;;;;2.55;2.35;;;;;;;17.45;50.66;101275.41;5017936;28;20290;-52
2022/05/17 01:09:05;;;;;;;3.38;2.58;;;;;;;17.39;50.67;101264.91;5019681;28;20247;-52
2022/05/17 01:11:32;;;;;;;2.95;2.22;;;;;;;17.34;52.06;101269.44;5025450;28;20233;-52
2022/05/17 01:16:46;;;;;;;6.07;2.88;;;;;;;17.25;50.81;101269.63;5006988;28;20228;-53
2022/05/17 01:19:16;;;;;;;3.28;2.97;;;;;;;17.26;50.89;101260.75;5025477;28;20248;-51
2022/05/17 01:21:44;;;;;;;3.53;2.75;;;;;;;17.20;51.15;101267.09;5025332;28;20243;-52
2022/05/17 01:24:10;;;;;;;7.80;2.75;;;;;;;17.18;52.14;101264.44;5030019;28;20236;-52
2022/05/17 01:26:42;;;;;;;8.88;2.42;;;;;;;17.18;52.71;101272.41;5019322;28;20710;-52
2022/05/17 01:29:09;;;;;;;2.65;2.08;;;;;;;17.20;52.69;101276.78;5016619;28;20233;-51
2022/05/17 01:31:38;;;;;;;6.57;2.45;;;;;;;17.21;53.41;101275.91;5011831;28;20257;-52
2022/05/17 01:34:05;;;;;;;3.08;2.13;;;;;;;17.18;55.10;101280.38;5011813;28;20287;-52
2022/05/17 01:36:32;;;;;;;3.50;2.80;;;;;;;17.14;55.19;101280.47;5021159;28;20322;-52
2022/05/17 01:38:59;;;;;;;2.90;2.22;;;;;;;17.10;55.42;101279.66;5023512;28;20254;-53
2022/05/17 01:41:26;;;;;;;3.15;2.53;;;;;;;17.13;54.64;101282.25;5013935;28;20742;-52
2022/05/17 01:43:53;;;;;;;3.08;2.30;;;;;;;17.13;53.53;101292.00;5018320;28;20242;-53
2022/05/17 01:46:19;;;;;;;3.95;2.80;;;;;;;17.11;54.33;101288.47;5016319;28;21036;-52
2022/05/17 01:48:46;;;;;;;4.10;2.83;;;;;;;17.03;56.78;101290.41;5017564;28;20229;-52
2022/05/17 01:51:13;;;;;;;3.58;2.28;;;;;;;16.85;59.08;101295.16;5020790;28;20236;-53
2022/05/17 01:53:39;;;;;;;4.30;2.38;;;;;;;16.70;61.62;101298.88;5016343;28;20233;-52
2022/05/17 01:56:09;;;;;;;3.47;2.75;;;;;;;16.57;65.34;101315.06;5021109;28;20711;-52
2022/05/17 01:58:36;;;;;;;4.40;3.05;;;;;;;16.41;70.68;101317.06;5020954;28;20699;-51
2022/05/17 02:01:02;;;;;;;4.93;3.17;;;;;;;16.19;74.26;101320.03;5018299;28;20229;-51
2022/05/17 02:03:29;;;;;;;3.42;2.83;;;;;;;16.00;79.18;101310.59;5022545;28;20236;-52
2022/05/17 02:05:55;;;;;;;5.00;3.05;;;;;;;15.74;81.99;101322.44;5024533;28;20286;-50
2022/05/17 02:08:21;;;;;;;2.75;2.42;;;;;;;15.53;83.21;101312.06;5023262;28;20232;-53
2022/05/17 02:10:48;;;;;;;5.15;2.97;;;;;;;15.35;86.87;101318.47;5018714;28;20271;-52
2022/05/17 02:13:17;;;;;;;3.63;2.97;;;;;;;-145.23;100.00;58621.06;5012233;28;20236;-51
2022/05/17 02:15:43;;;;;;;4.65;2.95;;;;;;;-145.23;100.00;58621.06;5016713;28;20228;-53
2022/05/17 02:18:10;;;;;;;3.15;2.85;;;;;;;-145.23;100.00;58621.06;5009182;28;20233;-51
2022/05/17 02:20:36;;;;;;;3.47;3.17;;;;;;;-145.23;100.00;58621.06;5019333;28;20244;-52
2022/05/17 02:23:03;;;;;;;6.07;3.35;;;;;;;-145.23;100.00;58621.06;5018430;28;20224;-52
2022/05/17 02:25:29;;;;;;;3.67;3.15;;;;;;;-145.23;100.00;58621.06;5020909;28;20633;-52
2022/05/17 02:27:56;;;;;;;6.15;3.05;;;;;;;-145.23;100.00;58621.06;5018498;28;20306;-52
2022/05/17 02:30:24;;;;;;;5.90;3.05;;;;;;;-145.23;100.00;58621.06;5020282;28;20240;-52
2022/05/17 02:32:50;;;;;;;3.00;2.70;;;;;;;-145.23;100.00;58621.06;5023234;28;20236;-53
2022/05/17 02:35:16;;;;;;;3.65;3.38;;;;;;;-145.23;100.00;58621.06;5021880;28;20267;-53
2022/05/17 02:37:43;;;;;;;6.50;3.72;;;;;;;-145.23;100.00;58621.06;5021523;28;20275;-51
2022/05/17 02:40:10;;;;;;;4.32;3.70;;;;;;;-145.23;100.00;58621.06;5017927;28;20237;-52
2022/05/17 02:42:37;;;;;;;5.22;3.60;;;;;;;-145.23;100.00;58621.06;5018458;28;20252;-52
2022/05/17 02:45:04;;;;;;;5.85;3.72;;;;;;;-145.23;100.00;58621.06;5022403;28;20260;-52
2022/05/17 02:47:31;;;;;;;4.43;3.08;;;;;;;-145.23;100.00;58621.06;5018697;28;20916;-53
2022/05/17 02:49:58;;;;;;;6.93;3.33;;;;;;;-145.23;100.00;58621.06;5016435;28;20286;-52
2022/05/17 02:52:24;;;;;;;5.68;3.75;;;;;;;-145.23;100.00;58621.06;5018798;28;20283;-51
2022/05/17 02:54:51;;;;;;;6.25;3.85;;;;;;;-145.23;100.00;58621.06;5021066;28;20229;-52
2022/05/17 02:57:17;;;;;;;3.67;3.25;;;;;;;-145.23;100.00;58621.06;5024086;28;20310;-52
2022/05/17 02:59:43;;;;;;;4.40;3.30;;;;;;;-145.23;100.00;58621.06;5020231;28;21173;-55
2022/05/17 03:02:10;;;;;;;5.20;3.20;;;;;;;-145.23;100.00;58621.06;5017073;28;20243;-52
2022/05/17 03:04:38;;;;;;;5.03;3.80;;;;;;;-145.23;100.00;58621.06;5024775;28;20244;-51
2022/05/17 03:07:05;;;;;;;7.07;3.38;;;;;;;-145.23;100.00;58621.06;5019108;28;20308;-52
2022/05/17 03:09:31;;;;;;;4.90;3.53;;;;;;;-145.23;100.00;58621.06;5013087;28;20298;-52
2022/05/17 03:11:58;;;;;;;5.90;3.63;;;;;;;-145.23;100.00;58621.06;5018396;28;20237;-53
2022/05/17 03:14:24;;;;;;;4.53;3.05;;;;;;;-145.23;100.00;58621.06;5025275;28;20593;-52
2022/05/17 03:16:51;;;;;;;5.60;4.43;;;;;;;-145.23;100.00;58621.06;5022020;28;20691;-50
2022/05/17 03:19:18;;;;;;;5.88;3.55;;;;;;;-145.23;100.00;58621.06;5020593;28;20302;-52
2022/05/17 03:21:47;;;;;;;8.13;3.92;;;;;;;-145.23;100.00;58621.06;5018342;28;20294;-52
2022/05/17 03:24:14;;;;;;;3.63;3.08;;;;;;;-145.23;100.00;58621.06;5022326;28;20776;-52
2022/05/17 03:26:40;;;;;;;4.95;3.67;;;;;;;-145.23;100.00;58621.06;5022461;28;20231;-52
2022/05/17 03:29:07;;;;;;;6.40;4.03;;;;;;;-145.23;100.00;58621.06;5018519;28;20244;-53
2022/05/17 03:31:35;;;;;;;7.75;4.10;;;;;;;-145.23;100.00;58621.06;5019241;28;20343;-55
2022/05/17 03:34:01;;;;;;;5.43;4.05;;;;;;;-145.23;100.00;58621.06;5021301;28;20237;-52
2022/05/17 03:36:28;;;;;;;5.40;3.47;;;;;;;-145.23;100.00;58621.06;5019295;28;20233;-52
2022/05/17 03:38:55;;;;;;;4.90;3.75;;;;;;;-145.23;100.00;58621.06;5021064;28;20282;-52
2022/05/17 03:41:21;;;;;;;7.55;3.70;;;;;;;-145.23;100.00;58621.06;5021534;28;20267;-51
2022/05/17 03:43:48;;;;;;;8.15;3.72;;;;;;;-145.23;100.00;58621.06;5022470;28;20667;-51
2022/05/17 03:46:14;;;;;;;4.70;3.97;;;;;;;-145.23;100.00;58621.06;5021165;28;20233;-53
2022/05/17 03:48:41;;;;;;;4.38;3.92;;;;;;;-145.23;100.00;58621.06;5022959;28;20252;-52
2022/05/17 03:51:14;;;;;;;7.53;5.10;;;;;;;-145.23;100.00;58621.06;5021484;28;20233;-51
2022/05/17 03:53:40;;;;;;;5.45;3.65;;;;;;;-145.23;100.00;58621.06;5024486;28;20228;-53
2022/05/17 03:56:08;;;;;;;4.40;4.00;;;;;;;-145.23;100.00;58621.06;5022929;28;20237;-53
2022/05/17 03:58:34;;;;;;;4.97;4.13;;;;;;;-145.23;100.00;58621.06;5019572;28;20667;-52
2022/05/17 04:01:02;;;;;;;6.13;3.92;;;;;;;-145.23;100.00;58621.06;5017259;28;20233;-51
2022/05/17 04:03:29;;;;;;;7.10;4.05;;;;;;;-145.23;90.02;101317.81;5020964;28;20738;-52
2022/05/17 04:05:55;;;;;;;4.45;3.90;;;;;;;13.59;100.00;101463.13;5017706;28;20251;-52
2022/05/17 04:08:22;;;;;;;5.10;3.55;;;;;;;13.50;100.00;101470.19;5022378;28;20264;-53
2022/05/17 04:10:48;;;;;;;7.55;4.45;;;;;;;13.50;100.00;101467.53;5019893;28;20440;-52
2022/05/17 04:13:16;;;;;;;4.32;3.90;;;;;;;13.42;100.00;101470.19;5020008;28;20240;-52
2022/05/17 04:15:43;;;;;;;4.55;3.50;;;;;;;13.39;100.00;101472.84;5016063;28;20232;-52
2022/05/17 04:18:09;;;;;;;5.28;3.40;;;;;;;13.29;100.00;101471.94;5012770;28;20290;-52
2022/05/17 04:20:36;;;;;;;4.38;3.95;;;;;;;13.27;100.00;101464.94;5017474;28;20291;-52
2022/05/17 04:23:02;;;;;;;4.30;3.80;;;;;;;13.23;100.00;101469.31;5017208;28;20237;-53
2022/05/17 04:25:29;;;;;;;5.55;4.00;;;;;;;13.22;100.00;101467.53;5021722;28;20730;-51
2022/05/17 04:27:56;;;;;;;6.07;4.43;;;;;;;13.21;100.00;101471.06;5021171;28;20652;-53
2022/05/17 04:30:23;;;;;;;5.15;4.47;;;;;;;13.21;100.00;101470.19;5022596;28;20240;-52
2022/05/17 04:32:50;;;;;;;10.57;4.55;;;;;;;13.19;100.00;101466.66;5023562;28;20393;-51
2022/05/17 04:35:17;;;;;;;6.18;4.15;;;;;;;13.14;100.00;101456.13;5019262;28;20714;-53
2022/05/17 04:37:43;;;;;;;4.53;3.38;;;;;;;13.11;100.00;101456.09;5020154;28;20239;-54
2022/05/17 04:40:13;;;;;;;5.55;5.00;;;;;;;13.04;100.00;101451.72;5010586;28;20306;-53
2022/05/17 04:42:41;;;;;;;4.45;4.05;;;;;;;12.95;100.00;101454.31;5023153;28;20239;-53
2022/05/17 04:45:10;;;;;;;5.10;4.45;;;;;;;12.86;100.00;101450.81;5019822;28;20236;-52
2022/05/17 04:47:40;;;;;;;4.22;3.67;;;;;;;12.90;100.00;101455.22;5026756;28;20282;-53
2022/05/17 04:50:07;;;;;;;8.48;3.75;;;;;;;12.89;100.00;101448.19;5020913;28;20243;-52
2022/05/17 04:52:34;;;;;;;7.57;4.45;;;;;;;12.92;100.00;101446.41;5024276;28;20244;-54
2022/05/17 04:55:00;;;;;;;4.47;3.70;;;;;;;13.02;100.00;101448.19;5016088;28;20299;-54
2022/05/17 04:57:26;;;;;;;4.00;3.60;;;;;;;13.19;100.00;101451.69;5023394;28;20236;-55
2022/05/17 04:59:53;;;;;;;4.22;3.83;;;;;;;13.15;100.00;101449.94;5022731;28;20236;-53
2022/05/17 05:02:19;;;;;;;8.43;4.40;;;;;;;13.19;100.00;101446.44;5023139;28;20261;-54
2022/05/17 05:04:47;;;;;;;4.22;3.88;;;;;;;13.11;100.00;101443.78;5023878;28;20240;-52
2022/05/17 05:07:13;;;;;;;5.40;3.85;;;;;;;13.06;100.00;101445.56;5029304;28;20232;-52
2022/05/17 05:09:40;;;;;;;4.40;4.00;;;;;;;13.09;100.00;101445.56;5024669;28;20682;-58
2022/05/17 05:12:07;;;;;;;4.20;3.85;;;;;;;13.09;100.00;101449.94;5026141;28;20302;-52
2022/05/17 05:14:33;;;;;;;5.07;4.07;;;;;;;13.25;100.00;101448.22;5025441;28;20750;-52
2022/05/17 05:16:59;;;;;;;6.15;4.20;;;;;;;13.32;100.00;101445.59;5023148;28;20260;-53
2022/05/17 05:19:26;;;;;;;3.47;3.15;;;;;;;13.38;100.00;101446.47;5023585;28;20268;-52
2022/05/17 05:21:53;;;;;;;4.47;3.40;;;;;;;13.52;100.00;101442.06;5028943;28;20318;-55
2022/05/17 05:24:20;;;;;;;4.38;3.25;;;;;;;13.61;100.00;101450.81;5026268;28;20614;-52
2022/05/17 05:26:46;;;;;;;4.55;3.83;;;;;;;13.79;100.00;101444.63;5022333;28;20264;-52
2022/05/17 05:29:12;;;;;;;5.53;3.90;;;;;;;13.87;100.00;101436.69;5019863;28;20261;-52
2022/05/17 05:31:39;;;;;;;4.05;3.65;;;;;;;13.93;100.00;101430.47;5027277;28;20233;-53
2022/05/17 05:34:05;;;;;;;4.22;3.85;;;;;;;13.93;100.00;101435.75;5020243;28;20236;-52
2022/05/17 05:36:31;;;;;;;5.50;4.55;;;;;;;13.74;100.00;101442.88;5025277;28;20259;-53
2022/05/17 05:38:59;;;;;;;7.45;3.80;;;;;;;13.58;100.00;101452.56;5018761;28;20237;-51
2022/05/17 05:41:26;;;;;;;7.20;4.88;;;;;;;13.47;100.00;101465.78;5022345;28;20225;-51
2022/05/17 05:43:52;;;;;;;9.77;5.47;;;;;;;13.49;100.00;101468.44;5020200;28;20257;-52
2022/05/17 05:46:18;;;;;;;6.13;5.15;;;;;;;13.45;100.00;101475.47;5026916;28;20232;-53
2022/05/17 05:48:45;;;;;;;8.35;4.63;;;;;;;13.45;100.00;101472.84;5023576;28;20777;-53
2022/05/17 05:51:11;;;;;;;10.10;5.60;;;;;;;13.44;100.00;101478.09;5025497;28;20245;-52
2022/05/17 05:53:38;;;;;;;8.55;6.68;;;;;;;13.40;100.00;101471.06;5022362;28;20275;-52
2022/05/17 05:56:06;;;;;;;9.60;5.38;;;;;;;13.40;100.00;101471.06;5019446;28;20245;-54
2022/05/17 05:58:34;;;;;;;5.82;5.22;;;;;;;13.36;100.00;101470.19;5011608;28;20232;-54
2022/05/17 06:01:00;;;;;;;6.07;5.47;;;;;;;13.40;100.00;101468.44;5019936;28;20306;-52
2022/05/17 06:03:27;;;;;;;5.57;4.90;;;;;;;13.49;100.00;101476.34;5025028;28;20237;-51
2022/05/17 06:05:54;;;;;;;8.30;5.60;;;;;;;13.47;100.00;101484.25;5019748;28;20236;-52
2022/05/17 06:08:21;;;;;;;5.50;4.65;;;;;;;13.44;100.00;101480.72;5018142;28;20321;-52
2022/05/17 06:10:47;;;;;;;4.65;4.10;;;;;;;13.46;100.00;101484.25;5025331;28;20241;-54
2022/05/17 06:13:16;;;;;;;6.45;4.95;;;;;;;13.47;100.00;101492.16;5024647;28;20237;-57
2022/05/17 06:15:43;;;;;;;7.22;5.88;;;;;;;13.46;100.00;101486.91;5018681;28;20771;-52
2022/05/17 06:18:10;;;;;;;6.75;5.90;;;;;;;13.53;100.00;101488.66;5015284;28;20288;-52
2022/05/17 06:20:38;;;;;;;7.25;5.60;;;;;;;13.54;100.00;101482.47;5019105;28;20314;-51
2022/05/17 06:23:05;;;;;;;5.68;4.88;;;;;;;13.66;100.00;101485.13;5019032;28;20708;-53
2022/05/17 06:25:32;;;;;;;8.60;5.57;;;;;;;13.70;100.00;101488.63;5027945;28;20629;-53
2022/05/17 06:27:59;;;;;;;6.15;5.55;;;;;;;13.67;100.00;101494.78;5012536;28;20233;-52
2022/05/17 06:30:26;;;;;;;8.60;7.25;;;;;;;13.67;100.00;101494.78;5015616;28;20261;-52
2022/05/17 06:32:53;;;;;;;9.77;5.60;;;;;;;13.76;100.00;101485.97;5007918;28;20252;-52
2022/05/17 06:35:19;;;;;;;7.75;6.00;;;;;;;13.74;100.00;101495.66;5023230;28;20237;-52
2022/05/17 06:37:49;;;;;;;7.05;5.47;;;;;;;13.74;100.00;101506.22;5016266;28;20233;-52
2022/05/17 06:40:15;;;;;;;9.20;5.00;;;;;;;13.74;100.00;101503.56;5022490;28;20244;-53
2022/05/17 06:42:42;;;;;;;7.15;5.60;;;;;;;13.74;100.00;101512.38;5024162;28;20236;-51
2022/05/17 06:45:09;;;;;;;9.40;6.18;;;;;;;13.79;100.00;101512.34;5017962;28;20244;-53
2022/05/17 06:47:37;;;;;;;9.70;5.38;;;;;;;13.82;100.00;101500.03;5020289;28;20252;-53
2022/05/17 06:50:04;;;;;;;5.40;4.90;;;;;;;13.91;100.00;101506.19;5019148;28;20228;-53
2022/05/17 06:52:30;;;;;;;7.75;4.68;;;;;;;14.05;100.00;101514.94;5016038;28;20248;-52
2022/05/17 06:54:56;;;;;;;6.32;5.47;;;;;;;14.05;100.00;101507.91;5015363;28;20762;-52
2022/05/17 06:57:23;;;;;;;7.97;6.30;;;;;;;14.00;100.00;101516.69;5022723;28;20233;-53
2022/05/17 06:59:49;;;;;;;6.90;5.50;;;;;;;14.06;100.00;101527.25;5024475;28;20256;-52
2022/05/17 07:02:16;;;;;;;7.63;5.32;;;;;;;14.06;100.00;101516.69;5019907;28;20703;-51
2022/05/17 07:04:44;;;;;;;5.97;5.38;;;;;;;14.09;100.00;101512.28;5014722;28;20233;-53
2022/05/17 07:07:10;;;;;;;5.65;5.07;;;;;;;14.11;100.00;101514.94;5022926;28;20883;-51
2022/05/17 07:09:38;;;;;;;12.88;7.40;;;;;;;14.11;100.00;101520.22;5014650;28;20291;-52
2022/05/17 07:14:49;;;;;;;8.90;6.28;;;;;;;14.33;100.00;101521.91;5022904;28;20239;-52
2022/05/17 07:17:17;;;;;;;7.78;5.85;;;;;;;14.42;100.00;101528.00;5020114;28;20291;-53
2022/05/17 07:19:46;;;;;;;6.95;5.43;;;;;;;14.49;100.00;101527.97;5020917;28;20229;-51
2022/05/17 07:22:13;;;;;;;6.60;5.78;;;;;;;14.58;100.00;101529.75;5012457;28;20237;-54
2022/05/17 07:24:41;;;;;;;8.50;6.45;;;;;;;14.59;100.00;101539.41;5020126;28;20768;-53
2022/05/17 07:27:09;;;;;;;9.02;6.25;;;;;;;14.66;100.00;101541.16;5019740;28;20925;-52
2022/05/17 07:29:36;;;;;;;7.88;6.43;;;;;;;14.68;100.00;101549.09;5016351;28;20241;-53
2022/05/17 07:32:03;;;;;;;8.80;6.57;;;;;;;14.81;100.00;101566.63;5018773;28;20260;-52
2022/05/17 07:34:30;;;;;;;7.47;6.63;;;;;;;14.96;100.00;101561.28;5015443;28;20271;-53
2022/05/17 07:36:57;;;;;;;11.65;8.27;;;;;;;15.00;100.00;101556.84;5023765;28;20235;-51
2022/05/17 07:39:24;;;;;;;11.55;6.70;;;;;;;14.99;100.00;101560.38;5020984;28;20232;-52
2022/05/17 07:41:52;;;;;;;6.40;5.78;;;;;;;14.98;100.00;101564.75;5020339;28;20224;-51
2022/05/17 07:44:18;;;;;;;7.57;5.97;;;;;;;14.98;100.00;101566.53;5015372;28;20233;-51
2022/05/17 07:46:45;;;;;;;8.10;5.88;;;;;;;14.97;100.00;101570.94;5018189;28;20283;-52
2022/05/17 07:49:11;;;;;;;7.35;6.00;;;;;;;15.02;100.00;101573.56;5020855;28;20252;-51
2022/05/17 07:51:37;;;;;;;11.32;7.50;;;;;;;14.95;100.00;101578.03;5019592;28;20233;-52
2022/05/17 07:54:06;;;;;;;8.65;6.07;;;;;;;15.00;100.00;101588.56;5021377;28;21013;-51
2022/05/17 07:56:33;;;;;;;9.48;7.00;;;;;;;15.10;100.00;101590.28;5023747;28;20314;-52
2022/05/17 07:58:59;;;;;;;6.78;6.10;;;;;;;15.09;100.00;101585.84;5021919;28;20296;-52
2022/05/17 08:01:25;;;;;;;8.35;7.43;;;;;;;15.13;100.00;101587.63;5014522;28;20240;-51
2022/05/17 08:03:53;;;;;;;15.85;12.98;;;;;;;15.10;100.00;101582.34;5016947;28;20233;-53
2022/05/17 08:06:19;;;;;;;12.60;10.70;;;;;;;15.15;100.00;101583.19;5019470;28;20253;-52
2022/05/17 08:08:46;;;;;;;10.50;8.75;;;;;;;15.14;100.00;101592.00;5015158;28;20903;-54
2022/05/17 08:11:13;;;;;;;11.13;7.20;;;;;;;15.19;100.00;101592.84;5023012;28;20327;-52
2022/05/17 08:13:40;;;;;;;7.38;6.68;;;;;;;15.25;100.00;101591.94;5022590;28;20224;-52
2022/05/17 08:16:06;;;;;;;6.95;6.35;;;;;;;15.34;100.00;101588.34;5014810;28;20244;-52
2022/05/17 08:18:34;;;;;;;7.70;6.47;;;;;;;15.40;100.00;101585.66;5012890;28;20264;-52
2022/05/17 08:21:00;;;;;;;9.55;8.65;;;;;;;15.30;100.00;101579.56;5020122;28;20309;-52
2022/05/17 08:23:27;;;;;;;7.45;6.80;;;;;;;15.37;100.00;101585.69;5025752;28;20252;-52
2022/05/17 08:28:38;;;;;;;8.35;7.30;;;;;;;15.69;100.00;101593.44;5028364;28;20641;-52
2022/05/17 08:31:05;;;;;;;9.20;7.88;;;;;;;15.71;100.00;101591.63;5024399;28;20241;-52
2022/05/17 08:33:31;;;;;;;7.85;7.00;;;;;;;15.76;100.00;101595.13;5009219;28;20232;-52
2022/05/17 08:36:00;;;;;;;14.18;7.82;;;;;;;15.73;100.00;101606.63;5016676;28;20313;-52
2022/05/17 08:38:28;;;;;;;11.52;8.48;;;;;;;15.85;100.00;101607.41;5024323;28;20263;-52
2022/05/17 08:41:06;;;;;;;11.38;7.90;;;;;;;15.82;100.00;101602.13;5020561;28;20240;-51
2022/05/17 08:43:43;;;;;;;8.43;7.13;;;;;;;15.79;100.00;101596.84;5021520;28;20294;-53
2022/05/17 08:46:22;;;;;;;9.80;6.55;;;;;;;15.80;100.00;101610.09;5021471;28;20610;-53
2022/05/17 08:48:52;;;;;;;7.35;6.68;;;;;;;15.93;100.00;101613.50;5019341;28;20275;-52
2022/05/17 08:51:27;;;;;;;7.10;6.40;;;;;;;16.16;100.00;101615.94;5025436;28;20241;-57
2022/05/17 08:53:53;;;;;;;11.20;6.65;;;;;;;16.14;100.00;101621.25;5018341;28;20286;-52
2022/05/17 08:56:20;;;;;;;9.07;7.47;;;;;;;16.14;100.00;101615.94;5021176;28;20293;-51
2022/05/17 08:58:50;;;;;;;12.15;7.93;;;;;;;16.17;100.00;101623.88;5018531;28;20247;-52
2022/05/17 09:01:21;;;;;;;8.80;7.78;;;;;;;16.24;100.00;101619.38;5023720;28;20350;-53
2022/05/17 09:04:03;;;;;;;7.80;6.88;;;;;;;16.49;100.00;101617.34;5024202;28;20228;-53
2022/05/17 09:06:34;;;;;;;11.45;7.55;;;;;;;16.54;100.00;101618.19;5026538;28;20626;-52
2022/05/17 09:09:04;;;;;;;7.40;6.68;;;;;;;16.68;100.00;101621.56;5025461;28;20323;-52
2022/05/17 09:11:34;;;;;;;8.63;6.65;;;;;;;16.98;100.00;101621.22;5028695;28;20240;-52
2022/05/17 09:14:06;;;;;;;11.25;8.05;;;;;;;16.97;100.00;101620.34;5017855;28;20232;-52
2022/05/17 09:16:36;;;;;;;8.02;6.30;;;;;;;17.22;100.00;101620.00;5022090;28;20238;-51
2022/05/17 09:19:02;;;;;;;8.30;6.78;;;;;;;17.55;100.00;101618.59;5014516;28;20288;-54
2022/05/17 09:21:31;;;;;;;7.07;6.10;;;;;;;17.70;100.00;101634.31;5018422;28;20291;-52
2022/05/17 09:23:59;;;;;;;7.30;6.25;;;;;;;17.86;100.00;101619.88;5026600;28;20768;-52
2022/05/17 09:26:29;;;;;;;6.45;4.95;;;;;;;17.88;97.95;101617.22;5027174;28;20267;-53
2022/05/17 09:28:58;;;;;;;4.93;4.40;;;;;;;18.06;100.00;101630.19;5009420;28;20316;-51
2022/05/17 09:31:30;;;;;;;8.07;3.83;;;;;;;-145.23;100.00;58621.06;5016105;28;20287;-52
2022/05/17 09:33:58;;;;;;;9.02;5.32;;;;;;;-145.23;100.00;58621.06;5020789;28;20790;-54
2022/05/17 09:36:33;;;;;;;5.45;4.35;;;;;;;-145.23;100.00;58621.06;5027330;28;20232;-53
2022/05/17 09:39:01;;;;;;;7.70;4.60;;;;;;;-145.23;100.00;58621.06;5015143;28;21021;-52
2022/05/17 09:41:34;;;;;;;6.45;5.28;;;;;;;-145.23;100.00;58621.06;5023186;28;20560;-51
2022/05/17 09:44:04;;;;;;;5.65;4.60;;;;;;;-145.23;100.00;58621.06;5021997;28;20232;-53
2022/05/17 09:46:34;;;;;;;5.18;4.68;;;;;;;-145.23;100.00;58621.06;5019463;28;20283;-51
2022/05/17 09:54:53;;;;;;;6.55;5.30;;;;;;;-145.23;100.00;58621.06;4982490;28;20230;-52
2022/05/17 09:57:22;;;;;;;6.40;5.13;;;;;;;-145.23;100.00;58621.06;4979075;28;20627;-52
2022/05/17 09:59:50;;;;;;;6.22;4.90;;;;;;;-145.23;100.00;58621.06;4996937;28;20229;-56
2022/05/17 10:02:40;;;;;;;7.15;4.68;;;;;;;-145.23;100.00;58621.06;5019829;28;20257;-52
2022/05/17 10:05:22;;;;;;;5.32;3.97;;;;;;;-145.23;100.00;58621.06;5028068;28;20244;-52
2022/05/17 10:07:52;;;;;;;4.90;4.22;;;;;;;-145.23;100.00;58621.06;5018148;28;20236;-51
2022/05/17 10:10:30;;;;;;;4.75;4.35;;;;;;;-145.23;100.00;58621.06;5022474;28;20244;-52
2022/05/17 10:13:04;;;;;;;6.35;4.95;;;;;;;-145.23;100.00;58621.06;5023203;28;20224;-52
2022/05/17 10:15:33;;;;;;;6.20;5.50;;;;;;;-145.23;100.00;58621.06;5021451;28;20271;-51
2022/05/17 10:18:04;;;;;;;5.63;4.93;;;;;;;-145.23;100.00;58621.06;5020735;28;20659;-54
2022/05/17 10:20:32;;;;;;;6.53;5.15;;;;;;;-145.23;100.00;58621.06;5023127;28;20268;-53
2022/05/17 10:23:01;;;;;;;5.57;4.95;;;;;;;-145.23;100.00;58621.06;5018215;28;20229;-52
2022/05/17 10:25:32;;;;;;;6.25;4.88;;;;;;;-145.23;100.00;58621.06;5019460;28;20287;-53
2022/05/17 10:28:02;;;;;;;9.85;5.40;;;;;;;-145.23;100.00;58621.06;5014445;28;20577;-53
2022/05/17 10:30:41;;;;;;;6.45;4.53;;;;;;;-145.23;100.00;58621.06;5021982;28;20232;-52
2022/05/17 10:33:12;;;;;;;9.93;5.88;;;;;;;-145.23;100.00;58621.06;5024243;28;20258;-52
2022/05/17 10:35:42;;;;;;;9.45;7.60;;;;;;;-145.23;100.00;58621.06;5020228;28;20228;-52
2022/05/17 10:38:11;;;;;;;6.35;5.75;;;;;;;-145.23;100.00;58621.06;5020786;28;20233;-54
2022/05/17 10:40:43;;;;;;;4.97;4.47;;;;;;;-145.23;100.00;58621.06;5016388;28;20299;-52
2022/05/17 10:43:12;;;;;;;6.15;4.53;;;;;;;-145.23;100.00;58621.06;5018442;28;20249;-51
2022/05/17 10:45:39;;;;;;;6.82;5.05;;;;;;;-145.23;100.00;58621.06;5022546;28;20248;-53
2022/05/17 10:48:16;;;;;;;7.38;4.75;;;;;;;-145.23;100.00;58621.06;5020714;28;20239;-50
2022/05/17 10:50:49;;;;;;;6.53;5.03;;;;;;;-145.23;100.00;58621.06;5021413;28;20282;-53
2022/05/17 10:53:24;;;;;;;7.18;4.10;;;;;;;-145.23;100.00;58621.06;5025215;28;20270;-52
2022/05/17 10:56:01;;;;;;;4.75;3.80;;;;;;;-145.23;100.00;58621.06;5009028;28;20538;-55
2022/05/17 10:58:33;;;;;;;5.80;4.38;;;;;;;-145.23;100.00;58621.06;5023910;28;20224;-51
2022/05/17 11:01:03;;;;;;;4.35;3.95;;;;;;;-145.23;100.00;58621.06;5009222;28;20260;-52
2022/05/17 11:03:56;;;;;;;5.63;4.07;;;;;;;-145.23;100.00;58621.06;5021378;28;20228;-53
2022/05/17 11:06:27;;;;;;;6.90;4.13;;;;;;;-145.23;100.00;58621.06;5017936;28;20251;-53
2022/05/17 11:09:00;;;;;;;4.15;3.75;;;;;;;-145.23;100.00;58621.06;5021626;28;20268;-54
2022/05/17 11:11:41;;;;;;;5.25;4.68;;;;;;;-145.23;100.00;58621.06;5019633;28;20283;-54
2022/05/17 11:14:11;;;;;;;9.70;4.13;;;;;;;-145.23;100.00;58621.06;5015571;28;20240;-53
2022/05/17 11:16:41;;;;;;;4.68;3.75;;;;;;;-145.23;100.00;58621.06;5022998;28;20244;-52
2022/05/17 11:19:12;;;;;;;6.13;5.05;;;;;;;-145.23;100.00;58621.06;5016992;28;20240;-52
2022/05/17 11:21:41;;;;;;;4.55;4.10;;;;;;;-145.23;100.00;58621.06;5019559;28;20626;-53
2022/05/17 11:24:16;;;;;;;4.68;4.10;;;;;;;-145.23;100.00;58621.06;5015921;28;20240;-52
2022/05/17 11:27:08;;;;;;;4.68;4.25;;;;;;;-145.23;100.00;58621.06;5023418;28;20236;-52
2022/05/17 11:30:03;;;;;;;4.72;4.32;;;;;;;-145.23;100.00;58621.06;5020825;28;20232;-52
2022/05/17 11:32:32;;;;;;;4.72;4.13;;;;;;;-145.23;100.00;58621.06;5023002;28;20715;-52
2022/05/17 11:35:03;;;;;;;5.03;3.80;;;;;;;-145.23;100.00;58621.06;5015910;28;20225;-52
2022/05/17 11:37:50;;;;;;;4.45;4.05;;;;;;;-145.23;98.40;58621.06;5017764;28;20278;-52